Amsterdam, Netherlands

10:48 AM CEST on August 31, 2015 (GMT +0200)
Aalsmeerderbrug | | Change Station
CLOSE
Current Station
Personal Weather Station
Location: Aalsmeerderbrug, NOORD-HOLLAND
Elevation: -3 ft
Nearby Weather Stations

Elev -3 ft 52.27 °N, 4.75 °E | Updated 3 minutes ago

Overcast
Overcast
73.8 °F
Feels Like 71 °F
N
0.0
Wind Variable Wind from NE
Gusts 5.4 mph

Today
High -- | Low -- °F
--% Chance of Precip.
Yesterday
High -- | Low -- °F
Precip. -- in
6:49 AM 8:31 PM
Waning Gibbous, 96% visible
Pressure 29.86 in
Visibility -9999.0 miles
Clouds Mostly Cloudy 200 ft
Mostly Cloudy 400 ft
Overcast 6600 ft
Heat Index 71 °F
Dew Point 72 °F
Humidity 95%
Rainfall 0.45 in
Snow Depth Not available.
UV 1 out of 12
Pollen Not available.
Air Quality Not available.
Flu Activity Not available.
METAR EHKD 310818Z AUTO 06007KT 3200 R21/P3000 BR BKN002 BKN004 OVC066 19/19 Q1011 AMB 07008KT 4000 BR FEW010 BKN050 TEMPO 20010G20KT 1500 TSRA SCT050CB
Pressure 29.86 in
Visibility -9999.0 miles
Clouds Mostly Cloudy 200 ft
Mostly Cloudy 400 ft
Overcast 6600 ft
Heat Index 71 °F
Dew Point 72 °F
Humidity 95%
Rainfall 0.45 in
Snow Depth Not available.
UV 1 out of 12
Pollen Not available.
Air Quality Not available.
Flu Activity Not available.
METAR EHKD 310818Z AUTO 06007KT 3200 R21/P3000 BR BKN002 BKN004 OVC066 19/19 Q1011 AMB 07008KT 4000 BR FEW010 BKN050 TEMPO 20010G20KT 1500 TSRA SCT050CB

10-Day Weather Forecast

×

Almanac

Astronomy

Aug. 31, 2015 Rise Set
Actual Time
Civil Twilight
Nautical Twilight
Astronomical Twilight
Moon
Length of Visible Light
Length of Day
Tomorrow will be .
, % of the Moon is Illuminated

Today's Extremes

Country Highs Country Lows

Community

WunderPhotos

Upload Photos

1,851,220 photos uploaded!

WunderBlogs® & News

Nearby

Air Quality

  Air Quality AQ Index Pollutant
Not available.

Snow Depth

Station Depth Elevation

Earthquake Activity

City Distance Mag. Time & Date
Minimum magnitude displayed is 2.5.

Coastal Water Temperatures

Place Temperature

Stations

Nearby Weather Stations

Station Location Temp. Windchill Dew Point Humidity Wind Precip. Elev Updated Type